Time;durP1;ratioP1;P1;durP2;ratioP2;P2;SDS_P1;SDS_P2;PMS_P1;PMS_P2;Temp;Humidity;BMP_temperature;BMP_pressure;BME280_temperature;BME280_humidity;BME280_pressure;Samples;Min_cycle;Max_cycle;Signal;HPM_P1;HPM_P2
2023/02/18 00:00:26;;;;;;;0.75;0.40;;;;;;;;;;5051376;28;20025;-48
2023/02/18 00:02:54;;;;;;;0.40;0.28;;;;;;;;;;5037890;28;20607;-51
2023/02/18 00:05:20;;;;;;;0.40;0.40;;;;;;;;;;5043995;28;20049;-46
2023/02/18 00:07:46;;;;;;;0.50;0.50;;;;;;;;;;5035796;28;20111;-46
2023/02/18 00:10:13;;;;;;;0.40;0.30;;;;;;;;;;5049350;28;20129;-46
2023/02/18 00:12:39;;;;;;;1.08;0.40;;;;;;;;;;5047313;28;20050;-47
2023/02/18 00:15:05;;;;;;;0.40;0.30;;;;;;;;;;5042282;28;20397;-46
2023/02/18 00:17:31;;;;;;;0.63;0.55;;;;;;;;;;5048005;28;20111;-46
2023/02/18 00:19:58;;;;;;;0.60;0.40;;;;;;;;;;5027633;28;20029;-47
2023/02/18 00:22:24;;;;;;;0.30;0.30;;;;;;;;;;5039989;28;20107;-46
2023/02/18 00:24:50;;;;;;;1.02;0.50;;;;;;;;;;5047156;28;20083;-47
2023/02/18 00:27:16;;;;;;;0.30;0.30;;;;;;;;;;5046656;28;20033;-47
2023/02/18 00:29:41;;;;;;;0.20;0.20;;;;;;;;;;5045151;28;20060;-47
2023/02/18 00:32:07;;;;;;;0.77;0.50;;;;;;;;;;5048464;28;20029;-48
2023/02/18 00:34:33;;;;;;;0.47;0.30;;;;;;;;;;5038902;28;20463;-46
2023/02/18 00:36:59;;;;;;;0.45;0.30;;;;;;;;;;5029333;28;20025;-45
2023/02/18 00:39:25;;;;;;;0.98;0.30;;;;;;;;;;5045193;28;20111;-48
2023/02/18 00:41:51;;;;;;;0.30;0.30;;;;;;;;;;5048865;28;20025;-48
2023/02/18 00:44:17;;;;;;;0.55;0.40;;;;;;;;;;5050172;28;20082;-45
2023/02/18 00:46:46;;;;;;;0.40;0.40;;;;;;;;;;5049574;28;20032;-46
2023/02/18 00:49:12;;;;;;;0.68;0.47;;;;;;;;;;5044310;28;20420;-48
2023/02/18 00:51:39;;;;;;;0.82;0.70;;;;;;;;;;5042289;28;20515;-47
2023/02/18 00:54:05;;;;;;;0.52;0.38;;;;;;;;;;5030644;28;20021;-50
2023/02/18 00:56:31;;;;;;;0.35;0.30;;;;;;;;;;5045919;28;20036;-50
2023/02/18 00:58:57;;;;;;;1.00;0.47;;;;;;;;;;5038478;28;20040;-48
2023/02/18 01:01:23;;;;;;;0.60;0.30;;;;;;;;;;5048514;28;20021;-49
2023/02/18 01:03:49;;;;;;;0.30;0.30;;;;;;;;;;5049451;28;20024;-51
2023/02/18 01:06:15;;;;;;;0.25;0.20;;;;;;;;;;5042368;28;20076;-50
2023/02/18 01:08:41;;;;;;;0.30;0.22;;;;;;;;;;5036539;28;20475;-47
2023/02/18 01:11:08;;;;;;;0.43;0.30;;;;;;;;;;5037082;28;20025;-50
2023/02/18 01:13:34;;;;;;;0.40;0.40;;;;;;;;;;5047800;28;20025;-46
2023/02/18 01:16:01;;;;;;;0.93;0.40;;;;;;;;;;5039577;28;20113;-48
2023/02/18 01:18:27;;;;;;;1.00;0.30;;;;;;;;;;5034803;28;20079;-47
2023/02/18 01:20:53;;;;;;;0.50;0.30;;;;;;;;;;5036991;28;20152;-50
2023/02/18 01:23:19;;;;;;;0.55;0.20;;;;;;;;;;5050470;28;20096;-49
2023/02/18 01:25:45;;;;;;;0.47;0.30;;;;;;;;;;5032930;28;20029;-49
2023/02/18 01:28:12;;;;;;;1.92;0.43;;;;;;;;;;5036699;28;20073;-50
2023/02/18 01:30:39;;;;;;;0.40;0.30;;;;;;;;;;5038852;28;20025;-49
2023/02/18 01:33:05;;;;;;;0.52;0.30;;;;;;;;;;5042452;28;20051;-50
2023/02/18 01:35:31;;;;;;;0.52;0.38;;;;;;;;;;5043985;28;20041;-49
2023/02/18 01:37:57;;;;;;;0.32;0.30;;;;;;;;;;5044686;28;20077;-50
2023/02/18 01:40:24;;;;;;;0.75;0.30;;;;;;;;;;5044661;28;20035;-50
2023/02/18 01:42:50;;;;;;;0.30;0.30;;;;;;;;;;5038810;28;20479;-50
2023/02/18 01:45:34;;;;;;;0.88;0.45;;;;;;;;;;5042050;28;20079;-48
2023/02/18 01:48:11;;;;;;;0.35;0.30;;;;;;;;;;5038182;28;20064;-50
2023/02/18 01:50:41;;;;;;;0.40;0.32;;;;;;;;;;5039539;28;20113;-47
2023/02/18 01:53:07;;;;;;;0.20;0.20;;;;;;;;;;5045858;28;20057;-51
2023/02/18 01:55:34;;;;;;;0.50;0.40;;;;;;;;;;5045587;28;20048;-47
2023/02/18 01:58:00;;;;;;;0.30;0.30;;;;;;;;;;5042230;28;20037;-49
2023/02/18 02:00:26;;;;;;;0.30;0.20;;;;;;;;;;5041374;28;20037;-51
2023/02/18 02:02:53;;;;;;;0.47;0.28;;;;;;;;;;5044131;28;20030;-48
2023/02/18 02:05:20;;;;;;;5.30;0.50;;;;;;;;;;5041384;28;20394;-46
2023/02/18 02:07:48;;;;;;;0.35;0.30;;;;;;;;;;5049209;28;20052;-48
2023/02/18 02:10:15;;;;;;;0.40;0.30;;;;;;;;;;5033626;28;20037;-50
2023/02/18 02:13:02;;;;;;;1.15;0.40;;;;;;;;;;5041640;28;20059;-50
2023/02/18 02:15:42;;;;;;;0.30;0.30;;;;;;;;;;5042122;28;20071;-47
2023/02/18 02:18:11;;;;;;;0.50;0.30;;;;;;;;;;5038593;28;20037;-49
2023/02/18 02:20:48;;;;;;;0.40;0.30;;;;;;;;;;5043270;28;20020;-46
2023/02/18 02:23:43;;;;;;;0.60;0.47;;;;;;;;;;5038832;28;20025;-46
2023/02/18 02:26:21;;;;;;;0.40;0.30;;;;;;;;;;5001261;28;20049;-47
2023/02/18 02:29:06;;;;;;;0.43;0.43;;;;;;;;;;5046260;28;20108;-46
2023/02/18 02:31:47;;;;;;;0.40;0.38;;;;;;;;;;5045115;28;20029;-47
2023/02/18 02:34:16;;;;;;;0.95;0.30;;;;;;;;;;5037372;28;20470;-49
2023/02/18 02:36:51;;;;;;;0.35;0.30;;;;;;;;;;5038340;28;20033;-48
2023/02/18 02:39:21;;;;;;;0.70;0.40;;;;;;;;;;5052115;28;20108;-49
2023/02/18 02:42:03;;;;;;;0.63;0.40;;;;;;;;;;5038405;28;20478;-47
2023/02/18 02:44:33;;;;;;;0.50;0.40;;;;;;;;;;5041622;28;20030;-49
2023/02/18 02:47:07;;;;;;;0.30;0.30;;;;;;;;;;5041373;28;20029;-52
2023/02/18 02:49:46;;;;;;;0.30;0.20;;;;;;;;;;5042968;28;20078;-46
2023/02/18 02:52:19;;;;;;;0.30;0.30;;;;;;;;;;5049991;28;20103;-50
2023/02/18 02:54:45;;;;;;;0.80;0.22;;;;;;;;;;5040520;28;20033;-47
2023/02/18 02:57:17;;;;;;;0.40;0.38;;;;;;;;;;5043392;28;20104;-47
2023/02/18 02:59:44;;;;;;;1.00;0.30;;;;;;;;;;5046787;28;20025;-50
2023/02/18 03:02:13;;;;;;;1.08;0.40;;;;;;;;;;5046839;28;20025;-47
2023/02/18 03:04:58;;;;;;;1.25;0.57;;;;;;;;;;5044787;28;20060;-52
2023/02/18 03:07:30;;;;;;;0.50;0.38;;;;;;;;;;5047149;28;20528;-49
2023/02/18 03:09:56;;;;;;;0.43;0.30;;;;;;;;;;5051955;28;20048;-47
2023/02/18 03:12:29;;;;;;;0.95;0.40;;;;;;;;;;5046875;28;20126;-48
2023/02/18 03:15:02;;;;;;;0.40;0.35;;;;;;;;;;5036938;28;20026;-48
2023/02/18 03:17:35;;;;;;;0.30;0.30;;;;;;;;;;5037435;28;20060;-48
2023/02/18 03:20:18;;;;;;;0.30;0.30;;;;;;;;;;5047860;28;20112;-52
2023/02/18 03:22:46;;;;;;;0.32;0.30;;;;;;;;;;5045437;28;20048;-48
2023/02/18 03:25:13;;;;;;;0.30;0.30;;;;;;;;;;5042330;28;20038;-52
2023/02/18 03:28:17;;;;;;;0.30;0.30;;;;;;;;;;5038629;28;20473;-50
2023/02/18 03:30:45;;;;;;;0.40;0.30;;;;;;;;;;5010546;28;20606;-50
2023/02/18 03:33:15;;;;;;;0.40;0.28;;;;;;;;;;5010804;28;20112;-49
2023/02/18 03:35:42;;;;;;;0.20;0.20;;;;;;;;;;5010001;28;20042;-50
2023/02/18 03:38:18;;;;;;;0.40;0.40;;;;;;;;;;5021359;28;20030;-49
2023/02/18 03:40:44;;;;;;;0.25;0.25;;;;;;;;;;5008651;28;20022;-51
2023/02/18 03:43:10;;;;;;;0.22;0.22;;;;;;;;;;5010519;28;20431;-49
2023/02/18 03:45:36;;;;;;;1.35;0.70;;;;;;;;;;5009528;28;20030;-46
2023/02/18 03:48:02;;;;;;;0.47;0.20;;;;;;;;;;5014756;28;20120;-48
2023/02/18 03:50:28;;;;;;;1.17;0.20;;;;;;;;;;5022315;28;20040;-50
2023/02/18 03:52:54;;;;;;;0.35;0.30;;;;;;;;;;5009533;28;20093;-48
2023/02/18 03:55:20;;;;;;;0.30;0.30;;;;;;;;;;5010053;28;20041;-47
2023/02/18 03:57:46;;;;;;;0.30;0.30;;;;;;;;;;4998864;28;20553;-47
2023/02/18 04:00:12;;;;;;;0.50;0.30;;;;;;;;;;5009660;28;20036;-46
2023/02/18 04:02:38;;;;;;;0.20;0.20;;;;;;;;;;5038928;28;20025;-46
2023/02/18 04:05:05;;;;;;;0.25;0.22;;;;;;;;;;5041081;28;20025;-48
2023/02/18 04:07:31;;;;;;;0.20;0.20;;;;;;;;;;5041702;28;20060;-46
2023/02/18 04:09:57;;;;;;;0.20;0.20;;;;;;;;;;5040789;28;20129;-46
2023/02/18 04:12:23;;;;;;;0.20;0.20;;;;;;;;;;5046001;28;20032;-48
2023/02/18 04:14:49;;;;;;;0.65;0.40;;;;;;;;;;5034377;28;20095;-46
2023/02/18 04:17:15;;;;;;;0.28;0.25;;;;;;;;;;5033285;28;20025;-46
2023/02/18 04:19:41;;;;;;;0.38;0.38;;;;;;;;;;5050939;28;20039;-46
2023/02/18 04:22:07;;;;;;;0.77;0.30;;;;;;;;;;5048284;28;20375;-47
2023/02/18 04:24:33;;;;;;;0.30;0.20;;;;;;;;;;5046673;28;20090;-46
2023/02/18 04:26:59;;;;;;;0.40;0.30;;;;;;;;;;5041272;28;20377;-46
2023/02/18 04:29:25;;;;;;;0.30;0.30;;;;;;;;;;5043614;28;20029;-47
2023/02/18 04:31:51;;;;;;;0.20;0.20;;;;;;;;;;5036004;28;20027;-48
2023/02/18 04:34:18;;;;;;;0.88;0.30;;;;;;;;;;5041395;28;20033;-46
2023/02/18 04:36:44;;;;;;;0.40;0.32;;;;;;;;;;5043244;28;20039;-47
2023/02/18 04:39:09;;;;;;;1.08;0.63;;;;;;;;;;5043355;28;20101;-47
2023/02/18 04:41:36;;;;;;;0.52;0.38;;;;;;;;;;5043881;28;20112;-47
2023/02/18 04:44:02;;;;;;;0.30;0.30;;;;;;;;;;5040995;28;20057;-46
2023/02/18 04:46:28;;;;;;;0.22;0.22;;;;;;;;;;5039897;28;20478;-46
2023/02/18 04:48:54;;;;;;;0.20;0.20;;;;;;;;;;5036116;28;20470;-49
2023/02/18 04:51:20;;;;;;;0.30;0.30;;;;;;;;;;5041176;28;20021;-49
2023/02/18 04:53:46;;;;;;;0.65;0.45;;;;;;;;;;5042279;28;20021;-50
2023/02/18 04:56:12;;;;;;;0.40;0.40;;;;;;;;;;5046027;28;20033;-50
2023/02/18 04:58:38;;;;;;;1.05;0.35;;;;;;;;;;5041262;28;20037;-46
2023/02/18 05:01:04;;;;;;;0.32;0.22;;;;;;;;;;5040276;28;20036;-52
2023/02/18 05:03:31;;;;;;;0.43;0.20;;;;;;;;;;5042813;28;20021;-47
2023/02/18 05:05:57;;;;;;;0.32;0.20;;;;;;;;;;5042133;28;20064;-47
2023/02/18 05:08:23;;;;;;;0.40;0.30;;;;;;;;;;5042125;28;20025;-50
2023/02/18 05:10:49;;;;;;;0.90;0.50;;;;;;;;;;5043825;28;20092;-49
2023/02/18 05:13:15;;;;;;;0.30;0.30;;;;;;;;;;5043336;28;20030;-51
2023/02/18 05:15:41;;;;;;;0.70;0.40;;;;;;;;;;5042801;28;20036;-47
2023/02/18 05:18:07;;;;;;;0.45;0.45;;;;;;;;;;5042039;28;20025;-49
2023/02/18 05:20:34;;;;;;;1.08;0.30;;;;;;;;;;5043030;28;20037;-47
2023/02/18 05:23:00;;;;;;;0.65;0.55;;;;;;;;;;5042890;28;20311;-49
2023/02/18 05:25:25;;;;;;;0.57;0.57;;;;;;;;;;5041750;28;20095;-46
2023/02/18 05:27:51;;;;;;;0.30;0.30;;;;;;;;;;5043389;28;20046;-48
2023/02/18 05:30:17;;;;;;;0.35;0.30;;;;;;;;;;5039931;28;20028;-48
2023/02/18 05:32:44;;;;;;;0.25;0.25;;;;;;;;;;5041450;28;20037;-50
2023/02/18 05:35:10;;;;;;;0.30;0.30;;;;;;;;;;5045177;28;20508;-49
2023/02/18 05:37:36;;;;;;;0.25;0.20;;;;;;;;;;5042800;28;20406;-46
2023/02/18 05:40:02;;;;;;;0.20;0.20;;;;;;;;;;5042255;28;20025;-50
2023/02/18 05:42:28;;;;;;;1.20;0.50;;;;;;;;;;5039175;28;20086;-49
2023/02/18 05:44:54;;;;;;;0.30;0.30;;;;;;;;;;5044211;28;20096;-48
2023/02/18 05:47:20;;;;;;;0.30;0.30;;;;;;;;;;5041140;28;20478;-47
2023/02/18 05:49:46;;;;;;;1.23;0.30;;;;;;;;;;5042532;28;20079;-46
2023/02/18 05:52:12;;;;;;;0.30;0.30;;;;;;;;;;5042628;28;20108;-48
2023/02/18 05:54:39;;;;;;;0.28;0.28;;;;;;;;;;5040986;28;20100;-46
2023/02/18 05:57:05;;;;;;;0.30;0.28;;;;;;;;;;5043457;28;20059;-45
2023/02/18 05:59:31;;;;;;;0.30;0.22;;;;;;;;;;5042647;28;20025;-49
2023/02/18 06:01:57;;;;;;;0.35;0.20;;;;;;;;;;5039035;28;20084;-46
2023/02/18 06:04:23;;;;;;;0.65;0.40;;;;;;;;;;5032031;28;20032;-47
2023/02/18 06:06:49;;;;;;;0.32;0.30;;;;;;;;;;5044408;28;20044;-47
2023/02/18 06:09:16;;;;;;;0.25;0.25;;;;;;;;;;5046690;28;20402;-46
2023/02/18 06:11:42;;;;;;;0.30;0.30;;;;;;;;;;5047260;28;20040;-46
2023/02/18 06:14:08;;;;;;;1.08;0.43;;;;;;;;;;5046157;28;20025;-49
2023/02/18 06:16:34;;;;;;;0.52;0.35;;;;;;;;;;5043138;28;20485;-46
2023/02/18 06:19:00;;;;;;;0.98;0.40;;;;;;;;;;5046081;28;20541;-46
2023/02/18 06:21:26;;;;;;;0.75;0.25;;;;;;;;;;5036296;28;20151;-46
2023/02/18 06:23:52;;;;;;;0.43;0.30;;;;;;;;;;5046129;28;20031;-48
2023/02/18 06:26:18;;;;;;;0.38;0.32;;;;;;;;;;5044178;28;20026;-47
2023/02/18 06:28:44;;;;;;;0.98;0.30;;;;;;;;;;5043492;28;20029;-47
2023/02/18 06:31:10;;;;;;;0.32;0.32;;;;;;;;;;5036136;28;20017;-50
2023/02/18 06:33:36;;;;;;;0.68;0.45;;;;;;;;;;5049569;28;20033;-47
2023/02/18 06:36:06;;;;;;;0.30;0.30;;;;;;;;;;5045601;28;20029;-46
2023/02/18 06:38:32;;;;;;;0.30;0.30;;;;;;;;;;5042406;28;20044;-46
2023/02/18 06:40:58;;;;;;;0.30;0.30;;;;;;;;;;5051804;28;20043;-46
2023/02/18 06:43:24;;;;;;;0.20;0.20;;;;;;;;;;5043541;28;20029;-47
2023/02/18 06:45:51;;;;;;;0.50;0.30;;;;;;;;;;5052206;28;20388;-47
2023/02/18 06:48:17;;;;;;;0.22;0.22;;;;;;;;;;5033178;28;20044;-47
2023/02/18 06:50:43;;;;;;;0.63;0.40;;;;;;;;;;5041583;28;20022;-47
2023/02/18 06:53:09;;;;;;;0.50;0.50;;;;;;;;;;5044519;28;20382;-49
2023/02/18 06:55:36;;;;;;;0.40;0.40;;;;;;;;;;5044359;28;20048;-47
2023/02/18 06:58:01;;;;;;;0.60;0.40;;;;;;;;;;5043644;28;20037;-48
2023/02/18 07:00:27;;;;;;;0.40;0.30;;;;;;;;;;5045168;28;20462;-48
2023/02/18 07:02:53;;;;;;;2.00;0.40;;;;;;;;;;5043379;28;20107;-48
2023/02/18 07:05:19;;;;;;;0.32;0.30;;;;;;;;;;5045156;28;20089;-50
2023/02/18 07:07:45;;;;;;;0.38;0.20;;;;;;;;;;5046183;28;20474;-51
2023/02/18 07:10:12;;;;;;;0.40;0.40;;;;;;;;;;5044906;28;20374;-50
2023/02/18 07:12:38;;;;;;;0.63;0.50;;;;;;;;;;5045361;28;20021;-47
2023/02/18 07:15:04;;;;;;;0.57;0.38;;;;;;;;;;5043187;28;20033;-51
2023/02/18 07:17:30;;;;;;;0.47;0.30;;;;;;;;;;5037717;28;20063;-47
2023/02/18 07:19:56;;;;;;;1.27;0.40;;;;;;;;;;5051918;28;20473;-46
2023/02/18 07:22:22;;;;;;;1.25;0.35;;;;;;;;;;5044522;28;20033;-49
2023/02/18 07:24:52;;;;;;;0.35;0.30;;;;;;;;;;5038301;28;20025;-48
2023/02/18 07:27:18;;;;;;;0.63;0.43;;;;;;;;;;5042166;28;20094;-49
2023/02/18 07:29:44;;;;;;;1.75;0.55;;;;;;;;;;5040905;28;20078;-47
2023/02/18 07:32:13;;;;;;;0.28;0.28;;;;;;;;;;5044959;28;20033;-48
2023/02/18 07:34:39;;;;;;;2.00;0.43;;;;;;;;;;5040489;28;20025;-48
2023/02/18 07:37:08;;;;;;;1.83;0.40;;;;;;;;;;5041757;28;20052;-48
2023/02/18 07:39:40;;;;;;;0.43;0.32;;;;;;;;;;5043392;28;20544;-47
2023/02/18 07:42:07;;;;;;;1.60;0.70;;;;;;;;;;5042164;28;20029;-51
2023/02/18 07:44:33;;;;;;;2.40;0.82;;;;;;;;;;5047271;28;20033;-47
2023/02/18 07:46:59;;;;;;;1.30;0.43;;;;;;;;;;5042910;28;20037;-50
2023/02/18 07:49:25;;;;;;;1.60;0.63;;;;;;;;;;5037534;28;20089;-46
2023/02/18 07:51:51;;;;;;;3.08;0.40;;;;;;;;;;5049686;28;20116;-46
2023/02/18 07:54:17;;;;;;;0.68;0.47;;;;;;;;;;5043093;28;20343;-47
2023/02/18 07:56:44;;;;;;;0.47;0.40;;;;;;;;;;5049169;28;20036;-46
2023/02/18 07:59:10;;;;;;;2.50;0.60;;;;;;;;;;5047534;28;20025;-47
2023/02/18 08:01:37;;;;;;;1.13;0.40;;;;;;;;;;5046967;28;20041;-46
2023/02/18 08:04:03;;;;;;;0.90;0.40;;;;;;;;;;5050330;28;20029;-47
2023/02/18 08:06:48;;;;;;;1.58;0.45;;;;;;;;;;5036848;28;20053;-46
2023/02/18 08:09:15;;;;;;;0.50;0.40;;;;;;;;;;5050625;28;20056;-46
2023/02/18 08:11:41;;;;;;;1.70;0.52;;;;;;;;;;5041926;28;20549;-46
2023/02/18 08:14:07;;;;;;;1.05;0.52;;;;;;;;;;5040191;28;20368;-47
2023/02/18 08:16:35;;;;;;;2.58;0.55;;;;;;;;;;5047031;28;20048;-46
2023/02/18 08:19:02;;;;;;;1.85;0.70;;;;;;;;;;5042482;28;20025;-45
2023/02/18 08:21:28;;;;;;;0.85;0.40;;;;;;;;;;5031698;28;20654;-47
2023/02/18 08:23:55;;;;;;;3.95;0.75;;;;;;;;;;5037969;28;20047;-50
2023/02/18 08:26:21;;;;;;;0.85;0.30;;;;;;;;;;5052090;28;20055;-46
2023/02/18 08:28:47;;;;;;;0.57;0.50;;;;;;;;;;5046003;28;20044;-49
2023/02/18 08:31:21;;;;;;;0.93;0.40;;;;;;;;;;5037658;28;20719;-48
2023/02/18 08:33:47;;;;;;;0.98;0.50;;;;;;;;;;5044289;28;20031;-47
2023/02/18 08:36:13;;;;;;;0.85;0.50;;;;;;;;;;5042375;28;20030;-46
2023/02/18 08:38:39;;;;;;;0.63;0.40;;;;;;;;;;5035843;28;20033;-46
2023/02/18 08:41:06;;;;;;;4.25;0.63;;;;;;;;;;5039179;28;20033;-47
2023/02/18 08:43:32;;;;;;;0.63;0.50;;;;;;;;;;5040852;28;20490;-48
2023/02/18 08:45:58;;;;;;;0.68;0.40;;;;;;;;;;5042198;28;20035;-50
2023/02/18 08:48:24;;;;;;;2.15;0.77;;;;;;;;;;5046597;28;20028;-47
2023/02/18 08:50:50;;;;;;;2.17;0.40;;;;;;;;;;5036130;28;20043;-47
2023/02/18 08:53:16;;;;;;;2.55;0.68;;;;;;;;;;5043377;28;20024;-47
2023/02/18 08:55:42;;;;;;;0.95;0.50;;;;;;;;;;5038827;28;20021;-48
2023/02/18 08:58:09;;;;;;;0.75;0.50;;;;;;;;;;5036129;28;20025;-48
2023/02/18 09:00:37;;;;;;;0.57;0.50;;;;;;;;;;5039835;28;20039;-46
2023/02/18 09:03:03;;;;;;;1.52;0.30;;;;;;;;;;5043807;28;20052;-47
2023/02/18 09:05:29;;;;;;;1.95;0.57;;;;;;;;;;5040036;28;20044;-46
2023/02/18 09:07:55;;;;;;;2.42;0.45;;;;;;;;;;5040875;28;20637;-49
2023/02/18 09:10:21;;;;;;;0.55;0.55;;;;;;;;;;5041629;28;20037;-47
2023/02/18 09:12:47;;;;;;;0.73;0.40;;;;;;;;;;5043283;28;20434;-47
2023/02/18 09:15:13;;;;;;;0.90;0.50;;;;;;;;;;5030369;28;20108;-51
2023/02/18 09:17:39;;;;;;;0.47;0.30;;;;;;;;;;5041926;28;20100;-49
2023/02/18 09:20:06;;;;;;;1.10;0.65;;;;;;;;;;5039135;28;20014;-48
2023/02/18 09:22:32;;;;;;;0.43;0.35;;;;;;;;;;5042131;28;20033;-49
2023/02/18 09:24:58;;;;;;;0.38;0.30;;;;;;;;;;5043840;28;20064;-49
2023/02/18 09:27:24;;;;;;;0.60;0.60;;;;;;;;;;5041589;28;20044;-51
2023/02/18 09:29:51;;;;;;;0.63;0.50;;;;;;;;;;5040362;28;20052;-48
2023/02/18 09:32:17;;;;;;;1.67;0.40;;;;;;;;;;5045537;28;20025;-49
2023/02/18 09:34:44;;;;;;;0.75;0.52;;;;;;;;;;5041175;28;20040;-48
2023/02/18 09:37:10;;;;;;;0.55;0.40;;;;;;;;;;5043049;28;20490;-49
2023/02/18 09:39:36;;;;;;;1.70;0.40;;;;;;;;;;5041887;28;20540;-48
2023/02/18 09:42:03;;;;;;;0.70;0.52;;;;;;;;;;5047135;28;20025;-48
2023/02/18 09:44:33;;;;;;;1.05;0.50;;;;;;;;;;5050777;28;20025;-51
2023/02/18 09:47:01;;;;;;;0.80;0.50;;;;;;;;;;5046444;28;20053;-51
2023/02/18 09:49:32;;;;;;;0.93;0.50;;;;;;;;;;5047623;28;20057;-49
2023/02/18 09:52:06;;;;;;;0.85;0.30;;;;;;;;;;5047416;28;20039;-48
2023/02/18 09:54:32;;;;;;;1.23;0.30;;;;;;;;;;5043855;28;20021;-48
2023/02/18 09:56:59;;;;;;;0.40;0.40;;;;;;;;;;5045836;28;20040;-48
2023/02/18 09:59:25;;;;;;;1.20;0.70;;;;;;;;;;5042661;28;20421;-49
2023/02/18 10:01:53;;;;;;;1.13;0.50;;;;;;;;;;5042392;28;20025;-47
2023/02/18 10:04:22;;;;;;;0.40;0.32;;;;;;;;;;5047748;28;20033;-49
2023/02/18 10:06:50;;;;;;;1.05;0.50;;;;;;;;;;5041695;28;20053;-48
2023/02/18 10:09:21;;;;;;;1.45;0.80;;;;;;;;;;5045616;28;20029;-49
2023/02/18 10:11:59;;;;;;;0.40;0.30;;;;;;;;;;5047256;28;20394;-49
2023/02/18 10:14:25;;;;;;;1.63;0.40;;;;;;;;;;5045848;28;20021;-47
2023/02/18 10:16:52;;;;;;;0.52;0.40;;;;;;;;;;5042409;28;20044;-47
2023/02/18 10:19:28;;;;;;;1.00;0.43;;;;;;;;;;5044203;28;20024;-50
2023/02/18 10:21:54;;;;;;;0.82;0.40;;;;;;;;;;5047504;28;20097;-48
2023/02/18 10:24:26;;;;;;;1.38;0.60;;;;;;;;;;5042589;28;20021;-51
2023/02/18 10:26:52;;;;;;;0.17;0.17;;;;;;;;;;5043907;28;20040;-48
2023/02/18 10:29:19;;;;;;;1.17;0.93;;;;;;;;;;5053200;28;20029;-49
2023/02/18 10:31:50;;;;;;;2.58;0.40;;;;;;;;;;5040889;28;20359;-52
2023/02/18 10:34:16;;;;;;;1.02;0.30;;;;;;;;;;5046097;28;20036;-48
2023/02/18 10:36:47;;;;;;;0.73;0.50;;;;;;;;;;5042836;28;20466;-48
2023/02/18 10:39:19;;;;;;;0.65;0.50;;;;;;;;;;5045771;28;20095;-49
2023/02/18 10:42:10;;;;;;;0.70;0.40;;;;;;;;;;5045005;28;20028;-50
2023/02/18 10:44:50;;;;;;;1.52;0.45;;;;;;;;;;5045981;28;20151;-49
2023/02/18 10:47:37;;;;;;;1.23;0.55;;;;;;;;;;5031051;28;20044;-49
2023/02/18 10:50:24;;;;;;;0.35;0.22;;;;;;;;;;5039934;28;20079;-49
2023/02/18 10:52:52;;;;;;;1.23;0.63;;;;;;;;;;5043828;28;20360;-48
2023/02/18 10:55:18;;;;;;;0.95;0.63;;;;;;;;;;5046082;28;20057;-48
2023/02/18 10:57:51;;;;;;;1.55;0.40;;;;;;;;;;5040499;28;20502;-48
2023/02/18 11:00:22;;;;;;;0.95;0.47;;;;;;;;;;5044324;28;20029;-49
2023/02/18 11:03:09;;;;;;;0.45;0.25;;;;;;;;;;5036691;28;20064;-49
2023/02/18 11:05:35;;;;;;;0.90;0.43;;;;;;;;;;5032480;28;20045;-50
2023/02/18 11:08:01;;;;;;;1.58;0.47;;;;;;;;;;5041873;28;20033;-49
2023/02/18 11:10:31;;;;;;;0.93;0.50;;;;;;;;;;5041658;28;20534;-48
2023/02/18 11:13:02;;;;;;;0.45;0.30;;;;;;;;;;5042008;28;20095;-52
2023/02/18 11:15:29;;;;;;;0.52;0.40;;;;;;;;;;5041786;28;20026;-49
2023/02/18 11:17:56;;;;;;;0.60;0.40;;;;;;;;;;5043283;28;20637;-51
2023/02/18 11:20:24;;;;;;;0.68;0.40;;;;;;;;;;5041437;28;20481;-53
2023/02/18 11:22:51;;;;;;;0.90;0.40;;;;;;;;;;5050177;28;20025;-52
2023/02/18 11:25:20;;;;;;;0.70;0.43;;;;;;;;;;5039144;28;20029;-50
2023/02/18 11:27:51;;;;;;;1.08;0.40;;;;;;;;;;5045877;28;20036;-51
2023/02/18 11:30:17;;;;;;;0.90;0.50;;;;;;;;;;5044221;28;20033;-51
2023/02/18 11:32:44;;;;;;;1.80;0.68;;;;;;;;;;5035462;28;20029;-51
2023/02/18 11:35:17;;;;;;;4.07;0.55;;;;;;;;;;5048239;28;20075;-51
2023/02/18 11:37:44;;;;;;;1.27;0.70;;;;;;;;;;5044325;28;20090;-51
2023/02/18 11:40:21;;;;;;;2.28;1.50;;;;;;;;;;5045941;28;20025;-53
2023/02/18 11:42:47;;;;;;;2.85;0.70;;;;;;;;;;5040256;28;20108;-53
2023/02/18 11:45:42;;;;;;;2.28;0.63;;;;;;;;;;5039222;28;20032;-50
2023/02/18 11:48:08;;;;;;;4.32;0.90;;;;;;;;;;5027732;28;20080;-50
2023/02/18 11:50:40;;;;;;;2.75;0.80;;;;;;;;;;5040326;28;20036;-49
2023/02/18 11:53:26;;;;;;;3.10;0.93;;;;;;;;;;5036102;28;20430;-53
2023/02/18 11:55:56;;;;;;;1.33;0.73;;;;;;;;;;5042598;28;20028;-50
2023/02/18 11:58:23;;;;;;;4.03;0.75;;;;;;;;;;5040014;28;20055;-49
2023/02/18 12:00:52;;;;;;;1.85;0.90;;;;;;;;;;5046305;28;20043;-52
2023/02/18 12:03:25;;;;;;;1.90;0.70;;;;;;;;;;5038386;28;20024;-48
2023/02/18 12:05:51;;;;;;;1.15;0.73;;;;;;;;;;5039263;28;20698;-50
2023/02/18 12:08:20;;;;;;;4.05;0.63;;;;;;;;;;5052199;28;20150;-49
2023/02/18 12:10:50;;;;;;;3.40;1.30;;;;;;;;;;5047559;28;20082;-48
2023/02/18 12:13:22;;;;;;;1.52;0.60;;;;;;;;;;5049227;28;20032;-48
2023/02/18 12:15:51;;;;;;;1.67;0.90;;;;;;;;;;5040575;28;20362;-50
2023/02/18 12:18:26;;;;;;;2.83;0.57;;;;;;;;;;5052051;28;20074;-52
2023/02/18 12:20:55;;;;;;;1.08;0.50;;;;;;;;;;5035744;28;20090;-51
2023/02/18 12:23:35;;;;;;;1.02;0.65;;;;;;;;;;5044955;28;20136;-48
2023/02/18 12:26:10;;;;;;;1.35;0.55;;;;;;;;;;5050636;28;20508;-49
2023/02/18 12:28:36;;;;;;;1.23;0.40;;;;;;;;;;5044662;28;20030;-48
2023/02/18 12:31:05;;;;;;;2.08;0.45;;;;;;;;;;5048755;28;20040;-48
2023/02/18 12:33:49;;;;;;;2.90;0.90;;;;;;;;;;5046211;28;20044;-49
2023/02/18 12:36:16;;;;;;;1.88;0.50;;;;;;;;;;5035836;28;20021;-48
2023/02/18 12:38:56;;;;;;;1.27;0.55;;;;;;;;;;5041988;28;20549;-48
2023/02/18 12:41:31;;;;;;;3.22;0.75;;;;;;;;;;5051861;28;20029;-49
2023/02/18 12:44:08;;;;;;;3.00;0.85;;;;;;;;;;5045364;28;20024;-49
2023/02/18 12:46:43;;;;;;;0.93;0.60;;;;;;;;;;5046210;28;20507;-47
2023/02/18 12:49:18;;;;;;;1.95;1.15;;;;;;;;;;5038139;28;20021;-49
2023/02/18 12:51:44;;;;;;;2.60;0.70;;;;;;;;;;5048236;28;20146;-49
2023/02/18 12:54:34;;;;;;;2.45;1.20;;;;;;;;;;5031957;28;20024;-50
2023/02/18 12:57:09;;;;;;;2.08;0.88;;;;;;;;;;5032033;28;20500;-50
2023/02/18 12:59:41;;;;;;;1.17;0.70;;;;;;;;;;5033766;28;20136;-47
2023/02/18 13:02:07;;;;;;;0.50;0.50;;;;;;;;;;5041112;28;20028;-52
2023/02/18 13:04:52;;;;;;;3.53;0.80;;;;;;;;;;5045305;28;20025;-51
2023/02/18 13:07:37;;;;;;;1.05;0.60;;;;;;;;;;5048443;28;20064;-51
2023/02/18 13:10:13;;;;;;;1.08;0.60;;;;;;;;;;5049096;28;20131;-50
2023/02/18 13:12:50;;;;;;;1.88;0.55;;;;;;;;;;5037255;28;20022;-50
2023/02/18 13:15:16;;;;;;;2.47;0.68;;;;;;;;;;5025411;28;20406;-50
2023/02/18 13:17:42;;;;;;;1.52;0.63;;;;;;;;;;5042035;28;20029;-50
2023/02/18 13:20:09;;;;;;;0.85;0.52;;;;;;;;;;5044791;28;20119;-48
2023/02/18 13:22:37;;;;;;;2.03;0.68;;;;;;;;;;5042903;28;20068;-48
2023/02/18 13:25:03;;;;;;;2.15;0.63;;;;;;;;;;5038245;28;20091;-47
2023/02/18 13:27:43;;;;;;;1.13;0.70;;;;;;;;;;5038634;28;20056;-52
2023/02/18 13:30:30;;;;;;;5.43;1.60;;;;;;;;;;5037595;28;20063;-50
2023/02/18 13:32:56;;;;;;;2.22;0.90;;;;;;;;;;5041671;28;20100;-47
2023/02/18 13:36:01;;;;;;;6.22;1.10;;;;;;;;;;5038696;28;20045;-48
2023/02/18 13:38:46;;;;;;;2.03;1.20;;;;;;;;;;5004953;28;20034;-51
2023/02/18 13:41:12;;;;;;;2.22;0.95;;;;;;;;;;4996046;28;20105;-50
2023/02/18 13:43:38;;;;;;;1.88;0.90;;;;;;;;;;5027119;28;20125;-49
2023/02/18 13:46:08;;;;;;;3.10;0.77;;;;;;;;;;5037687;28;20087;-48
2023/02/18 13:48:42;;;;;;;1.83;0.88;;;;;;;;;;5042919;28;20033;-47
2023/02/18 13:51:08;;;;;;;2.15;0.65;;;;;;;;;;5041948;28;20030;-51
2023/02/18 13:53:38;;;;;;;2.22;0.63;;;;;;;;;;5043340;28;20040;-46
2023/02/18 13:56:17;;;;;;;1.27;0.70;;;;;;;;;;5043565;28;20041;-47
2023/02/18 13:58:49;;;;;;;2.58;1.10;;;;;;;;;;5037180;28;20031;-45
2023/02/18 14:01:15;;;;;;;;;;;;;;;;;;5042265;28;20041;-48
2023/02/18 14:03:44;;;;;;;2.75;1.00;;;;;;;;;;5048279;28;19913;-47
2023/02/18 14:06:17;;;;;;;3.30;0.90;;;;;;;;;;5045149;28;20053;-48
2023/02/18 14:08:43;;;;;;;2.78;0.95;;;;;;;;;;5033953;28;20037;-50
2023/02/18 14:11:12;;;;;;;2.00;0.68;;;;;;;;;;5035200;28;20083;-49
2023/02/18 14:13:39;;;;;;;3.42;0.82;;;;;;;;;;5047882;28;20540;-48
2023/02/18 14:16:06;;;;;;;3.47;0.93;;;;;;;;;;5042278;28;20095;-49
2023/02/18 14:18:52;;;;;;;5.28;1.25;;;;;;;;;;5042250;28;20034;-51
2023/02/18 14:21:21;;;;;;;3.63;1.20;;;;;;;;;;5038349;28;20044;-51
2023/02/18 14:23:57;;;;;;;11.45;1.40;;;;;;;;;;5039232;28;20028;-51
2023/02/18 14:26:39;;;;;;;4.00;1.50;;;;;;;;;;5042942;28;20485;-47
2023/02/18 14:29:11;;;;;;;3.45;1.38;;;;;;;;;;5042400;28;20112;-48
2023/02/18 14:31:45;;;;;;;2.45;0.98;;;;;;;;;;5048486;28;20041;-50
2023/02/18 14:34:15;;;;;;;3.47;1.35;;;;;;;;;;5045212;28;20112;-51
2023/02/18 14:36:47;;;;;;;2.80;1.58;;;;;;;;;;5047742;28;20422;-51
2023/02/18 14:39:34;;;;;;;6.32;2.05;;;;;;;;;;5048854;28;20033;-47
2023/02/18 14:42:00;;;;;;;5.53;2.40;;;;;;;;;;5046892;28;20094;-49
2023/02/18 14:44:44;;;;;;;6.35;1.48;;;;;;;;;;5036072;28;20025;-47
2023/02/18 14:47:11;;;;;;;5.55;1.30;;;;;;;;;;5049160;28;20052;-50
2023/02/18 14:49:49;;;;;;;3.08;1.27;;;;;;;;;;5042664;28;20636;-47
2023/02/18 14:52:21;;;;;;;5.88;1.63;;;;;;;;;;5050317;28;20036;-48
2023/02/18 14:54:48;;;;;;;5.55;1.55;;;;;;;;;;5043382;28;20025;-49